Time;durP1;ratioP1;P1;durP2;ratioP2;P2;SDS_P1;SDS_P2;PMS_P1;PMS_P2;Temp;Humidity;BMP_temperature;BMP_pressure;BME280_temperature;BME280_humidity;BME280_pressure;Samples;Min_cycle;Max_cycle;Signal;HPM_P1;HPM_P2
2022/07/05 00:00:04;;;;;;;;;;;;;;;23.36;42.18;102216.19;6221976;22;19911;-79
2022/07/05 00:02:29;;;;;;;;;;;;;;;23.34;42.31;102204.81;6222403;23;19908;-79
2022/07/05 00:04:54;;;;;;;;;;;;;;;23.33;42.26;102208.34;6196632;23;19981;-79
2022/07/05 00:07:20;;;;;;;;;;;;;;;23.32;42.16;102209.22;6247295;23;19982;-78
2022/07/05 00:09:50;;;;;;;;;;;;;;;23.29;42.47;102206.63;6247873;23;19912;-79
2022/07/05 00:12:15;;;;;;;;;;;;;;;23.29;42.32;102204.00;6248752;22;19962;-79
2022/07/05 00:14:41;;;;;;;;;;;;;;;23.28;42.18;102200.53;6221971;23;20316;-78
2022/07/05 00:17:07;;;;;;;;;;;;;;;23.29;42.19;102196.13;6247009;23;19982;-79
2022/07/05 00:19:32;;;;;;;;;;;;;;;23.29;42.38;102204.00;6196665;23;19927;-79
2022/07/05 00:21:58;;;;;;;;;;;;;;;23.28;42.39;102208.41;6247286;23;19911;-79
2022/07/05 00:24:23;;;;;;;;;;;;;;;23.28;42.36;102204.88;6221722;23;19912;-79
2022/07/05 00:26:49;;;;;;;;;;;;;;;23.27;42.20;102195.28;6221601;23;20244;-79
2022/07/05 00:29:14;;;;;;;;;;;;;;;23.26;42.56;102198.81;6246913;23;19911;-80
2022/07/05 00:31:39;;;;;;;;;;;;;;;23.26;42.34;102201.44;6221351;23;19950;-80
2022/07/05 00:34:04;;;;;;;;;;;;;;;23.26;42.26;102199.66;6221761;23;19911;-78
2022/07/05 00:36:30;;;;;;;;;;;;;;;23.27;42.21;102201.41;6221667;23;19918;-78
2022/07/05 00:38:55;;;;;;;;;;;;;;;23.24;42.53;102195.34;6221777;23;20021;-78
2022/07/05 00:41:20;;;;;;;;;;;;;;;23.24;42.53;102195.34;6246797;23;19912;-78
2022/07/05 00:43:52;;;;;;;;;;;;;;;23.24;42.51;102188.31;6221392;23;20002;-79
2022/07/05 00:46:18;;;;;;;;;;;;;;;23.22;42.67;102199.72;6220884;23;19999;-78
2022/07/05 00:48:43;;;;;;;;;;;;;;;23.22;42.40;102197.97;6221477;23;20277;-78
2022/07/05 00:51:09;;;;;;;;;;;;;;;23.23;42.52;102201.44;6246756;23;19911;-78
2022/07/05 00:53:34;;;;;;;;;;;;;;;23.23;42.56;102201.44;6246903;23;19908;-78
2022/07/05 00:56:00;;;;;;;;;;;;;;;23.22;42.49;102205.84;6221307;23;19919;-78
2022/07/05 00:58:26;;;;;;;;;;;;;;;23.20;42.32;102200.59;6221705;23;19911;-78
2022/07/05 01:00:51;;;;;;;;;;;;;;;23.19;42.38;102212.00;6246669;22;20034;-78
2022/07/05 01:03:16;;;;;;;;;;;;;;;23.20;42.63;102207.63;6246792;23;19997;-78
2022/07/05 01:05:42;;;;;;;;;;;;;;;23.16;42.67;102201.53;6246602;23;19916;-78
2022/07/05 01:08:07;;;;;;;;;;;;;;;23.19;42.44;102201.50;6246627;23;19911;-78
2022/07/05 01:10:33;;;;;;;;;;;;;;;23.17;42.57;102210.28;6221179;23;20345;-78
2022/07/05 01:12:58;;;;;;;;;;;;;;;23.17;42.68;102205.91;6248391;23;20365;-79
2022/07/05 01:15:23;;;;;;;;;;;;;;;23.16;42.59;102196.25;6221583;23;19912;-77
2022/07/05 01:17:49;;;;;;;;;;;;;;;23.16;42.75;102201.53;6246607;23;19911;-78
2022/07/05 01:20:14;;;;;;;;;;;;;;;23.17;42.37;102207.66;6246365;23;19912;-78
2022/07/05 01:22:56;;;;;;;;;;;;;;;23.18;42.92;102206.75;6220973;23;19912;-77
2022/07/05 01:25:23;;;;;;;;;;;;;;;23.17;42.92;102199.78;6246377;23;19951;-78
2022/07/05 01:27:49;;;;;;;;;;;;;;;23.16;42.57;102196.25;6246390;23;19907;-78
2022/07/05 01:30:14;;;;;;;;;;;;;;;23.16;42.53;102191.00;6246748;23;19935;-78
2022/07/05 01:32:39;;;;;;;;;;;;;;;23.16;42.50;102198.03;6246677;23;19907;-78
2022/07/05 01:35:05;;;;;;;;;;;;;;;23.16;42.81;102192.78;6246388;23;19914;-77
2022/07/05 01:37:31;;;;;;;;;;;;;;;23.16;42.63;102198.91;6221145;23;19911;-77
2022/07/05 01:39:57;;;;;;;;;;;;;;;23.14;42.59;102191.94;6246495;23;19942;-78
2022/07/05 01:42:22;;;;;;;;;;;;;;;23.13;42.67;102200.72;6247991;22;20312;-78
2022/07/05 01:44:48;;;;;;;;;;;;;;;23.13;42.95;102190.19;6221028;23;19935;-78
2022/07/05 01:47:14;;;;;;;;;;;;;;;23.16;42.75;102198.03;6220725;23;20320;-78
2022/07/05 01:49:41;;;;;;;;;;;;;;;23.13;42.86;102195.47;6246414;23;19911;-78
2022/07/05 01:52:08;;;;;;;;;;;;;;;23.11;42.86;102200.72;6247563;22;19907;-78
2022/07/05 01:54:33;;;;;;;;;;;;;;;23.11;42.65;102197.22;6246164;23;19907;-78
2022/07/05 01:56:58;;;;;;;;;;;;;;;23.11;42.87;102195.47;6245916;23;20015;-78
2022/07/05 01:59:24;;;;;;;;;;;;;;;23.12;42.88;102196.31;6220741;23;19912;-79
2022/07/05 02:01:49;;;;;;;;;;;;;;;23.11;42.87;102192.84;6220643;23;20335;-79
2022/07/05 02:04:16;;;;;;;;;;;;;;;23.12;42.86;102193.69;6220725;23;19912;-78
2022/07/05 02:06:41;;;;;;;;;;;;;;;23.11;42.80;102198.09;6246203;23;19955;-82
2022/07/05 02:09:07;;;;;;;;;;;;;;;23.11;42.92;102191.97;6248107;23;19911;-81
2022/07/05 02:11:32;;;;;;;;;;;;;;;23.11;43.07;102197.22;6246874;23;20328;-81
2022/07/05 02:13:58;;;;;;;;;;;;;;;23.11;43.13;102194.59;6249913;23;19911;-82
2022/07/05 02:16:25;;;;;;;;;;;;;;;23.10;43.15;102196.34;6246623;23;19942;-82
2022/07/05 02:18:50;;;;;;;;;;;;;;;23.11;42.98;102194.59;6246389;23;19935;-82
2022/07/05 02:21:16;;;;;;;;;;;;;;;23.10;42.75;102201.59;6246129;23;19915;-81
2022/07/05 02:23:41;;;;;;;;;;;;;;;23.11;43.00;102194.59;6246354;23;19957;-81
2022/07/05 02:26:06;;;;;;;;;;;;;;;23.11;42.78;102197.22;6220736;23;19922;-81
2022/07/05 02:28:31;;;;;;;;;;;;;;;23.10;42.94;102195.47;6220329;23;19962;-81
2022/07/05 02:31:00;;;;;;;;;;;;;;;23.09;42.95;102191.97;6220823;23;20240;-81
2022/07/05 02:33:25;;;;;;;;;;;;;;;23.08;42.81;102194.63;6245860;23;19957;-81
2022/07/05 02:35:50;;;;;;;;;;;;;;;23.08;43.07;102195.50;6220730;23;19916;-80
2022/07/05 02:38:15;;;;;;;;;;;;;;;23.10;42.96;102192.84;6220841;23;19911;-81
2022/07/05 02:40:41;;;;;;;;;;;;;;;23.09;43.02;102194.59;6220285;23;20307;-80
2022/07/05 02:43:06;;;;;;;;;;;;;;;23.09;42.93;102191.97;6220812;23;19912;-80
2022/07/05 02:45:31;;;;;;;;;;;;;;;23.09;43.08;102197.22;6247254;23;19958;-81
2022/07/05 02:47:57;;;;;;;;;;;;;;;23.07;43.15;102188.50;6245650;23;20331;-80
2022/07/05 02:50:22;;;;;;;;;;;;;;;23.07;42.88;102191.13;6246111;23;20011;-81
2022/07/05 02:52:47;;;;;;;;;;;;;;;23.07;43.15;102192.88;6220681;23;20328;-79
2022/07/05 02:55:13;;;;;;;;;;;;;;;23.06;42.86;102192.03;6245734;23;20267;-81
2022/07/05 02:57:38;;;;;;;;;;;;;;;23.07;43.20;102196.38;6245820;23;19998;-78
2022/07/05 03:00:04;;;;;;;;;;;;;;;23.07;43.20;102187.63;6220035;22;19916;-78
2022/07/05 03:02:30;;;;;;;;;;;;;;;23.05;42.96;102195.53;6245789;23;19919;-78
2022/07/05 03:04:55;;;;;;;;;;;;;;;23.05;42.98;102200.78;6221206;23;19915;-78
2022/07/05 03:07:21;;;;;;;;;;;;;;;23.06;43.08;102197.28;6245573;23;20282;-81
2022/07/05 03:09:46;;;;;;;;;;;;;;;23.05;43.12;102199.91;6244963;23;19908;-81
2022/07/05 03:12:11;;;;;;;;;;;;;;;23.05;43.02;102202.53;6220641;23;19912;-81
2022/07/05 03:14:37;;;;;;;;;;;;;;;23.05;43.04;102198.16;6220303;23;19907;-82
2022/07/05 03:17:02;;;;;;;;;;;;;;;23.03;43.22;102199.06;6195275;23;20014;-81
2022/07/05 03:19:27;;;;;;;;;;;;;;;23.05;42.96;102205.16;6220245;23;20312;-82
2022/07/05 03:21:52;;;;;;;;;;;;;;;23.05;43.15;102213.03;6220433;23;19912;-78
2022/07/05 03:24:18;;;;;;;;;;;;;;;23.05;43.10;102215.66;6195464;23;20236;-79
2022/07/05 03:26:43;;;;;;;;;;;;;;;22.98;43.28;102214.84;6220276;23;19946;-79
2022/07/05 03:29:08;;;;;;;;;;;;;;;23.03;42.99;102212.19;6195529;23;19911;-79
2022/07/05 03:31:33;;;;;;;;;;;;;;;23.04;43.31;102217.44;6220457;23;19986;-79
2022/07/05 03:33:59;;;;;;;;;;;;;;;23.03;43.37;102215.66;6247134;23;19916;-78
2022/07/05 03:36:24;;;;;;;;;;;;;;;23.01;43.25;102217.44;6220181;23;20324;-79
2022/07/05 03:38:49;;;;;;;;;;;;;;;23.02;43.32;102219.19;6245940;23;19969;-79
2022/07/05 03:41:14;;;;;;;;;;;;;;;22.98;43.23;102217.47;6245530;23;19911;-78
2022/07/05 03:43:40;;;;;;;;;;;;;;;23.03;43.06;102222.69;6245455;23;19908;-79
2022/07/05 03:46:05;;;;;;;;;;;;;;;23.03;43.26;102220.94;6245165;23;19962;-79
2022/07/05 03:48:30;;;;;;;;;;;;;;;23.02;43.27;102220.94;6245425;23;19908;-78
2022/07/05 03:50:56;;;;;;;;;;;;;;;23.00;43.25;102219.22;6246891;23;19915;-77
2022/07/05 03:53:21;;;;;;;;;;;;;;;22.96;43.42;102225.34;6245141;23;19914;-78
2022/07/05 03:55:46;;;;;;;;;;;;;;;22.98;43.34;102222.72;6246982;23;19942;-79
2022/07/05 03:58:11;;;;;;;;;;;;;;;23.00;43.16;102228.84;6245281;22;19986;-80
2022/07/05 04:00:37;;;;;;;;;;;;;;;23.08;43.23;102229.63;6245481;23;19970;-81
2022/07/05 04:03:02;;;;;;;;;;;;;;;23.16;43.19;102227.78;6245783;23;19912;-79
2022/07/05 04:05:27;;;;;;;;;;;;;;;23.22;43.18;102226.00;6245137;23;20279;-80
2022/07/05 04:07:54;;;;;;;;;;;;;;;23.25;42.89;102223.31;6219852;23;19915;-80
2022/07/05 04:10:20;;;;;;;;;;;;;;;23.27;43.29;102224.16;6245249;23;19998;-81
2022/07/05 04:12:45;;;;;;;;;;;;;;;23.29;42.95;102222.41;6245409;23;20343;-81
2022/07/05 04:15:11;;;;;;;;;;;;;;;23.30;43.03;102221.50;6194821;23;20332;-79
2022/07/05 04:17:45;;;;;;;;;;;;;;;23.33;42.67;102226.72;6245623;23;19914;-81
2022/07/05 04:20:11;;;;;;;;;;;;;;;23.34;42.98;102229.34;6246575;23;19907;-80
2022/07/05 04:22:36;;;;;;;;;;;;;;;23.35;42.98;102227.59;6247299;23;19912;-81
2022/07/05 04:25:17;;;;;;;;;;;;;;;23.35;43.05;102225.81;6247134;23;19919;-81
2022/07/05 04:27:42;;;;;;;;;;;;;;;23.37;42.99;102228.44;6225477;23;19985;-79
2022/07/05 04:30:08;;;;;;;;;;;;;;;23.37;42.81;102228.44;6221922;23;20323;-79
2022/07/05 04:32:34;;;;;;;;;;;;;;;23.39;42.87;102224.91;6221967;23;20342;-79
2022/07/05 04:34:59;;;;;;;;;;;;;;;23.41;42.81;102232.78;6247154;23;19908;-79
2022/07/05 04:37:24;;;;;;;;;;;;;;;23.40;42.94;102231.88;6196601;23;19915;-80
2022/07/05 04:39:49;;;;;;;;;;;;;;;23.44;42.54;102237.97;6247186;23;19912;-81
2022/07/05 04:42:15;;;;;;;;;;;;;;;23.44;42.56;102237.13;6247901;23;19918;-81
2022/07/05 04:44:40;;;;;;;;;;;;;;;23.44;42.83;102235.34;6224052;23;20286;-80
2022/07/05 04:47:05;;;;;;;;;;;;;;;23.45;42.57;102239.69;6221788;23;20244;-84
2022/07/05 04:49:30;;;;;;;;;;;;;;;23.46;42.66;102236.19;6196382;23;19958;-77
2022/07/05 04:51:56;;;;;;;;;;;;;;;23.47;42.56;102237.94;6249650;23;20282;-77
2022/07/05 04:54:21;;;;;;;;;;;;;;;23.46;42.45;102246.72;6227640;23;19991;-79
2022/07/05 04:56:46;;;;;;;;;;;;;;;23.49;42.64;102241.41;6250380;23;19918;-76
2022/07/05 04:59:11;;;;;;;;;;;;;;;23.72;42.02;102232.38;6223690;23;19911;-77
2022/07/05 05:01:37;;;;;;;;;;;;;;;23.90;41.08;102234.78;6221391;23;19911;-77
2022/07/05 05:04:02;;;;;;;;;;;;;;;24.03;40.64;102233.72;6221542;23;19982;-83
2022/07/05 05:06:27;;;;;;;;;;;;;;;24.14;40.07;102241.44;6221248;23;20248;-83
2022/07/05 05:08:52;;;;;;;;;;;;;;;24.23;40.09;102238.66;6221376;23;19995;-80
2022/07/05 05:11:18;;;;;;;;;;;;;;;24.28;39.64;102241.25;6247447;23;19911;-85
2022/07/05 05:13:45;;;;;;;;;;;;;;;24.40;39.55;102245.44;6247451;22;19912;-86
2022/07/05 05:16:10;;;;;;;;;;;;;;;24.43;39.53;102248.91;6222234;23;19946;-85
2022/07/05 05:18:36;;;;;;;;;;;;;;;24.50;39.12;102240.91;6221903;23;19912;-84
2022/07/05 05:21:04;;;;;;;;;;;;;;;24.57;38.88;102251.31;6245807;23;20480;-83
2022/07/05 05:23:29;;;;;;;;;;;;;;;24.57;38.74;102253.09;6248547;22;19908;-81
2022/07/05 05:25:54;;;;;;;;;;;;;;;24.48;38.98;102247.97;6246456;23;20339;-81
2022/07/05 05:28:20;;;;;;;;;;;;;;;24.58;38.66;102247.78;6195962;23;20316;-85
2022/07/05 05:30:46;;;;;;;;;;;;;;;24.75;38.23;102246.63;6221017;23;20343;-81
2022/07/05 05:33:11;;;;;;;;;;;;;;;24.76;37.84;102251.88;6247204;23;19908;-85
2022/07/05 05:35:36;;;;;;;;;;;;;;;24.55;38.43;102253.09;6221157;23;19946;-82
2022/07/05 05:38:02;;;;;;;;;;;;;;;24.40;38.87;102248.94;6220726;23;19908;-85
2022/07/05 05:40:27;;;;;;;;;;;;;;;24.27;38.83;102262.31;6196339;23;19947;-84
2022/07/05 05:42:53;;;;;;;;;;;;;;;24.21;38.77;102258.88;6195858;23;19919;-84
2022/07/05 05:45:19;;;;;;;;;;;;;;;24.28;38.47;102267.56;6221255;23;20224;-84
2022/07/05 05:47:44;;;;;;;;;;;;;;;24.37;38.08;102277.94;6246295;23;19908;-84
2022/07/05 05:50:09;;;;;;;;;;;;;;;24.33;37.98;102272.75;6246606;23;19911;-83
2022/07/05 05:52:34;;;;;;;;;;;;;;;24.19;37.94;102265.94;6246852;23;19908;-84
2022/07/05 05:55:00;;;;;;;;;;;;;;;24.12;38.09;102266.03;6221651;23;19912;-84
2022/07/05 05:57:25;;;;;;;;;;;;;;;24.09;37.92;102266.09;6246616;23;19908;-85
2022/07/05 05:59:50;;;;;;;;;;;;;;;24.06;37.90;102264.34;6221281;23;20320;-85
2022/07/05 06:02:15;;;;;;;;;;;;;;;24.08;37.72;102266.97;6246507;23;20275;-84
2022/07/05 06:04:40;;;;;;;;;;;;;;;24.18;37.43;102273.84;6249918;22;20271;-83
2022/07/05 06:07:06;;;;;;;;;;;;;;;24.32;37.09;102268.34;6226332;22;20263;-82
2022/07/05 06:09:31;;;;;;;;;;;;;;;24.26;37.05;102271.97;6251548;22;19921;-82
2022/07/05 06:11:56;;;;;;;;;;;;;;;24.23;37.02;102279.88;6226578;22;20315;-83
2022/07/05 06:14:21;;;;;;;;;;;;;;;24.16;36.67;102271.22;6226183;22;19911;-83
2022/07/05 06:16:47;;;;;;;;;;;;;;;24.15;36.71;102279.13;6225978;22;19918;-83
2022/07/05 06:19:12;;;;;;;;;;;;;;;24.76;35.53;102275.59;6226113;22;19984;-82
2022/07/05 06:21:37;;;;;;;;;;;;;;;24.72;35.78;102279.16;6226269;22;19912;-82
2022/07/05 06:24:02;;;;;;;;;;;;;;;25.55;34.82;102274.16;6225876;22;19911;-82
2022/07/05 06:26:28;;;;;;;;;;;;;;;25.01;35.00;102283.03;6225455;22;19915;-81
2022/07/05 06:28:53;;;;;;;;;;;;;;;25.60;34.02;102280.19;6251173;22;20330;-82
2022/07/05 06:31:18;;;;;;;;;;;;;;;24.93;35.27;102285.78;6225809;22;19918;-81
2022/07/05 06:33:43;;;;;;;;;;;;;;;25.42;34.88;102291.97;6251038;22;19912;-81
2022/07/05 06:36:08;;;;;;;;;;;;;;;25.24;34.54;102293.19;6225951;22;20002;-82
2022/07/05 06:38:34;;;;;;;;;;;;;;;25.90;33.62;102286.59;6225915;22;19911;-82
2022/07/05 06:40:59;;;;;;;;;;;;;;;24.77;35.82;102298.38;6225782;22;19915;-82
2022/07/05 06:43:25;;;;;;;;;;;;;;;24.54;36.42;102300.50;6225426;22;19949;-82
2022/07/05 06:45:51;;;;;;;;;;;;;;;25.56;34.99;102297.81;6251185;22;19922;-82
2022/07/05 06:48:16;;;;;;;;;;;;;;;25.59;34.47;102302.19;6226171;22;19912;-84
2022/07/05 06:50:42;;;;;;;;;;;;;;;25.05;35.83;102301.38;6251233;22;20237;-83
2022/07/05 06:53:08;;;;;;;;;;;;;;;27.99;30.13;102286.50;6251269;22;19914;-82
2022/07/05 06:55:34;;;;;;;;;;;;;;;26.73;32.50;102289.09;6251059;22;19957;-83
2022/07/05 06:58:00;;;;;;;;;;;;;;;29.54;27.67;102288.34;6250955;22;19915;-82
2022/07/05 07:00:26;;;;;;;;;;;;;;;30.36;26.24;102291.41;6251149;22;19915;-83
2022/07/05 07:02:51;;;;;;;;;;;;;;;30.52;26.15;102289.84;6225978;22;19911;-83
2022/07/05 07:05:16;;;;;;;;;;;;;;;30.87;25.72;102297.28;6251096;22;19930;-83
2022/07/05 07:10:25;;;;;;;;;;;;;;;28.74;28.56;102303.56;6278297;22;19914;-83
2022/07/05 07:12:51;;;;;;;;;;;;;;;27.03;31.08;102311.22;6225811;22;19938;-82
2022/07/05 07:15:16;;;;;;;;;;;;;;;27.27;30.70;102304.44;6250961;22;19915;-82
2022/07/05 07:17:41;;;;;;;;;;;;;;;26.22;32.74;102301.72;6251120;22;19908;-83
2022/07/05 07:20:07;;;;;;;;;;;;;;;26.13;33.20;102298.41;6225525;22;19918;-82
2022/07/05 07:22:32;;;;;;;;;;;;;;;25.92;33.48;102303.28;6225311;22;19982;-83
2022/07/05 07:24:57;;;;;;;;;;;;;;;25.82;33.57;102305.19;6225625;22;19911;-83
2022/07/05 07:27:23;;;;;;;;;;;;;;;25.35;34.41;102314.06;6225724;22;19965;-82
2022/07/05 07:29:48;;;;;;;;;;;;;;;25.29;34.16;102315.06;6251250;22;19912;-82
2022/07/05 07:32:13;;;;;;;;;;;;;;;25.54;33.96;102323.34;6251105;22;19907;-83
2022/07/05 07:34:39;;;;;;;;;;;;;;;25.42;33.89;102316.56;6251163;22;19985;-82
2022/07/05 07:37:05;;;;;;;;;;;;;;;25.34;34.46;102314.97;6225473;22;19915;-82
2022/07/05 07:39:33;;;;;;;;;;;;;;;25.22;34.87;102324.84;6250807;22;19907;-82
2022/07/05 07:41:59;;;;;;;;;;;;;;;25.26;34.39;102325.66;6250816;22;19931;-83
2022/07/05 07:44:24;;;;;;;;;;;;;;;25.18;34.37;102332.78;6251063;22;20320;-83
2022/07/05 07:46:50;;;;;;;;;;;;;;;25.17;34.55;102329.28;6277924;22;20208;-83
2022/07/05 07:49:16;;;;;;;;;;;;;;;25.36;33.93;102321.94;6251061;22;19911;-83
2022/07/05 07:51:41;;;;;;;;;;;;;;;25.35;34.17;102330.75;6225581;22;19998;-82
2022/07/05 07:54:06;;;;;;;;;;;;;;;25.36;33.97;102326.34;6251106;22;19961;-83
2022/07/05 07:56:32;;;;;;;;;;;;;;;25.34;34.08;102325.50;6227734;22;19990;-82
2022/07/05 07:58:57;;;;;;;;;;;;;;;25.42;34.02;102327.09;6227971;22;20293;-82
2022/07/05 08:01:23;;;;;;;;;;;;;;;25.50;34.26;102326.06;6252884;22;19907;-82
2022/07/05 08:03:49;;;;;;;;;;;;;;;25.45;34.26;102331.44;6227718;22;20008;-82
2022/07/05 08:06:15;;;;;;;;;;;;;;;25.13;34.42;102337.25;6279496;22;19942;-83
2022/07/05 08:08:41;;;;;;;;;;;;;;;25.29;34.57;102330.00;6253619;22;19994;-82
2022/07/05 08:11:08;;;;;;;;;;;;;;;25.25;34.23;102331.81;6252774;22;19945;-82
2022/07/05 08:13:33;;;;;;;;;;;;;;;25.35;34.16;102335.16;6252667;22;20334;-82
2022/07/05 08:15:58;;;;;;;;;;;;;;;25.27;34.39;102347.59;6253115;22;19907;-82
2022/07/05 08:23:52;;;;;;;;;;;;;;;25.37;34.32;102334.22;6279869;22;19991;-82
2022/07/05 08:26:17;;;;;;;;;;;;;;;25.48;34.42;102343.66;6252709;22;19962;-83
2022/07/05 08:28:42;;;;;;;;;;;;;;;25.44;34.10;102356.06;6252839;22;20331;-82
2022/07/05 08:31:08;;;;;;;;;;;;;;;25.50;34.27;102345.41;6227025;22;20220;-82
2022/07/05 08:33:33;;;;;;;;;;;;;;;25.52;34.45;102346.25;6227393;22;19918;-82
2022/07/05 08:35:58;;;;;;;;;;;;;;;25.60;34.26;102346.94;6252599;22;20208;-82
2022/07/05 08:38:24;;;;;;;;;;;;;;;25.64;34.62;102343.34;6227310;22;19911;-82
2022/07/05 08:40:50;;;;;;;;;;;;;;;25.66;34.48;102346.81;6227200;22;20263;-82
2022/07/05 08:43:16;;;;;;;;;;;;;;;25.66;34.84;102353.88;6252611;22;19914;-82
2022/07/05 08:45:43;;;;;;;;;;;;;;;25.68;34.57;102354.72;6252328;22;20239;-83
2022/07/05 08:48:08;;;;;;;;;;;;;;;25.52;35.00;102353.25;6253116;22;20369;-83
2022/07/05 08:50:35;;;;;;;;;;;;;;;25.45;35.11;102369.19;6279980;22;19911;-83
2022/07/05 08:53:00;;;;;;;;;;;;;;;25.54;34.86;102362.88;6279305;22;20323;-83
2022/07/05 08:55:26;;;;;;;;;;;;;;;25.55;34.99;102359.34;6279407;22;19914;-83
2022/07/05 08:57:51;;;;;;;;;;;;;;;25.59;35.04;102360.19;6279267;22;19961;-83
2022/07/05 09:00:17;;;;;;;;;;;;;;;25.63;34.73;102361.81;6252264;22;19916;-83
2022/07/05 09:02:42;;;;;;;;;;;;;;;25.58;35.09;102358.41;6227256;22;19950;-83
2022/07/05 09:05:09;;;;;;;;;;;;;;;25.54;34.92;102357.59;6226934;22;19923;-83
2022/07/05 09:07:36;;;;;;;;;;;;;;;25.51;35.33;102368.22;6251985;22;20330;-83
2022/07/05 09:10:02;;;;;;;;;;;;;;;25.49;35.31;102358.59;6252122;22;20409;-82
2022/07/05 09:12:27;;;;;;;;;;;;;;;25.38;35.55;102356.16;6278710;22;19934;-81
2022/07/05 09:14:54;;;;;;;;;;;;;;;25.21;35.97;102357.31;6251733;22;19907;-81
2022/07/05 09:17:19;;;;;;;;;;;;;;;25.16;35.96;102369.69;6251726;22;20382;-80
2022/07/05 09:19:51;;;;;;;;;;;;;;;25.25;36.10;102366.91;6226354;22;19946;-81
2022/07/05 09:22:16;;;;;;;;;;;;;;;25.32;36.25;102364.19;6251861;22;19983;-80
2022/07/05 09:24:45;;;;;;;;;;;;;;;25.25;36.10;102369.56;6226639;22;20327;-81
2022/07/05 09:27:11;;;;;;;;;;;;;;;25.21;36.07;102375.78;6226306;22;19919;-81
2022/07/05 09:29:36;;;;;;;;;;;;;;;25.15;36.12;102381.13;6226205;22;19964;-81
2022/07/05 09:32:01;;;;;;;;;;;;;;;25.13;36.32;102384.66;6251531;22;19942;-82
2022/07/05 09:34:29;;;;;;;;;;;;;;;25.10;36.46;102376.84;6252208;22;20005;-81
2022/07/05 09:36:54;;;;;;;;;;;;;;;25.05;36.35;102377.78;6226732;22;19918;-81
2022/07/05 09:39:29;;;;;;;;;;;;;;;25.04;36.31;102378.69;6251996;22;19911;-81
2022/07/05 09:42:11;;;;;;;;;;;;;;;25.03;36.38;102376.94;6251888;22;19914;-81
2022/07/05 09:44:43;;;;;;;;;;;;;;;25.00;36.69;102378.75;6251515;22;19907;-82
2022/07/05 09:47:12;;;;;;;;;;;;;;;24.95;36.65;102381.44;6278412;22;20333;-81
2022/07/05 09:49:43;;;;;;;;;;;;;;;24.90;37.08;102380.66;6253665;22;19907;-82
2022/07/05 09:52:08;;;;;;;;;;;;;;;24.83;37.23;102384.28;6251804;22;19907;-81
2022/07/05 09:54:34;;;;;;;;;;;;;;;24.81;36.96;102386.94;6278573;22;20010;-81
2022/07/05 09:56:59;;;;;;;;;;;;;;;24.80;37.14;102386.94;6251632;22;19911;-82
2022/07/05 09:59:24;;;;;;;;;;;;;;;24.79;36.91;102387.88;6251200;22;19934;-81
2022/07/05 10:01:50;;;;;;;;;;;;;;;24.81;36.27;102393.97;6251504;22;20335;-81
2022/07/05 10:04:15;;;;;;;;;;;;;;;24.76;36.97;102393.16;6251793;22;20011;-81
2022/07/05 10:06:40;;;;;;;;;;;;;;;24.73;36.80;102401.97;6251306;22;19915;-80
2022/07/05 10:09:06;;;;;;;;;;;;;;;24.72;36.53;102389.72;6226330;22;19915;-80
2022/07/05 10:11:31;;;;;;;;;;;;;;;24.69;36.52;102397.66;6252188;22;19908;-81
2022/07/05 10:13:57;;;;;;;;;;;;;;;24.68;36.73;102410.84;6253373;22;19931;-80
2022/07/05 10:16:23;;;;;;;;;;;;;;;24.68;37.05;102403.81;6278220;22;19949;-80
2022/07/05 10:18:52;;;;;;;;;;;;;;;24.65;36.89;102406.50;6251388;22;19911;-80
2022/07/05 10:21:18;;;;;;;;;;;;;;;24.62;36.83;102404.75;6225860;22;19990;-81
2022/07/05 10:23:44;;;;;;;;;;;;;;;24.62;37.17;102404.75;6225867;22;19993;-80
2022/07/05 10:26:11;;;;;;;;;;;;;;;24.61;36.84;102408.31;6278060;22;19915;-81
2022/07/05 10:28:37;;;;;;;;;;;;;;;24.61;36.97;102410.06;6251030;22;19907;-81
2022/07/05 10:31:03;;;;;;;;;;;;;;;24.61;37.06;102405.66;6226768;22;19947;-81
2022/07/05 10:33:29;;;;;;;;;;;;;;;24.62;37.45;102401.28;6251164;22;19926;-80
2022/07/05 10:35:56;;;;;;;;;;;;;;;24.62;37.33;102411.81;6278476;22;19938;-81
2022/07/05 10:38:21;;;;;;;;;;;;;;;24.61;37.06;102410.94;6251292;22;19911;-82
2022/07/05 10:40:49;;;;;;;;;;;;;;;24.61;37.12;102404.81;6225820;22;20013;-81
2022/07/05 10:43:15;;;;;;;;;;;;;;;24.60;37.01;102405.69;6250799;22;19944;-82
2022/07/05 10:45:46;;;;;;;;;;;;;;;24.61;37.39;102410.06;6225825;22;19998;-81
2022/07/05 10:48:11;;;;;;;;;;;;;;;24.60;37.26;102410.94;6278609;22;20220;-81
2022/07/05 10:50:47;;;;;;;;;;;;;;;24.60;37.07;102417.06;6278159;22;19954;-81
2022/07/05 10:53:13;;;;;;;;;;;;;;;24.59;37.09;102428.50;6250915;22;20327;-81
2022/07/05 10:55:49;;;;;;;;;;;;;;;24.56;36.69;102427.66;6251302;22;19918;-81
2022/07/05 10:58:18;;;;;;;;;;;;;;;24.53;36.89;102425.97;6251074;22;20353;-80
2022/07/05 11:00:43;;;;;;;;;;;;;;;24.52;36.46;102423.34;6225347;22;19919;-80
2022/07/05 11:03:27;;;;;;;;;;;;;;;24.52;36.14;102420.72;6251022;22;19907;-81
2022/07/05 11:05:53;;;;;;;;;;;;;;;24.54;36.97;102417.19;6277681;22;19989;-81
2022/07/05 11:08:18;;;;;;;;;;;;;;;24.54;36.98;102421.56;6225832;22;19911;-82
2022/07/05 11:11:07;;;;;;;;;;;;;;;24.51;36.70;102425.09;6251295;22;19914;-80
2022/07/05 11:13:36;;;;;;;;;;;;;;;24.51;37.21;102421.63;6265892;22;19907;-81
2022/07/05 11:16:19;;;;;;;;;;;;;;;24.52;37.16;102423.34;6250865;22;19908;-82
2022/07/05 11:18:45;;;;;;;;;;;;;;;24.50;37.28;102425.13;6250754;22;19907;-81
2022/07/05 11:21:16;;;;;;;;;;;;;;;24.49;36.71;102429.53;6277960;22;20338;-81
2022/07/05 11:23:41;;;;;;;;;;;;;;;24.50;37.37;102431.28;6250695;22;19914;-80
2022/07/05 11:26:07;;;;;;;;;;;;;;;24.52;36.64;102425.97;6225818;22;19915;-81
2022/07/05 11:28:42;;;;;;;;;;;;;;;24.51;37.06;102432.13;6250556;22;20338;-81
2022/07/05 11:31:07;;;;;;;;;;;;;;;24.50;37.27;102420.75;6277816;22;19907;-81
2022/07/05 11:33:33;;;;;;;;;;;;;;;24.50;36.76;102428.66;6250591;22;20417;-80
2022/07/05 11:35:58;;;;;;;;;;;;;;;24.51;36.78;102432.13;6277629;22;19915;-80
2022/07/05 11:38:24;;;;;;;;;;;;;;;24.51;37.23;102432.13;6251052;22;19930;-80
2022/07/05 11:40:49;;;;;;;;;;;;;;;24.50;36.86;102433.91;6225761;22;19912;-82
2022/07/05 11:43:14;;;;;;;;;;;;;;;24.50;37.42;102436.53;6250563;22;19912;-81
2022/07/05 11:45:39;;;;;;;;;;;;;;;24.50;36.79;102431.28;6250702;22;19922;-81
2022/07/05 11:48:05;;;;;;;;;;;;;;;24.51;37.11;102440.03;6250630;22;19934;-81
2022/07/05 11:50:32;;;;;;;;;;;;;;;24.51;37.53;102432.13;6225913;22;19911;-80
2022/07/05 11:52:58;;;;;;;;;;;;;;;24.53;37.25;102433.00;6250694;22;20438;-79
2022/07/05 11:55:24;;;;;;;;;;;;;;;24.55;37.23;102437.34;6225218;22;19911;-80
2022/07/05 11:57:51;;;;;;;;;;;;;;;24.58;37.72;102439.06;6277816;22;19937;-80
2022/07/05 12:00:45;;;;;;;;;;;;;;;24.60;37.30;102440.75;6250412;22;19983;-80
2022/07/05 12:03:11;;;;;;;;;;;;;;;24.61;37.14;102446.91;6256480;22;19938;-80
2022/07/05 12:05:37;;;;;;;;;;;;;;;24.62;37.19;102446.00;6250367;22;19915;-80
2022/07/05 12:08:02;;;;;;;;;;;;;;;24.62;37.21;102443.38;6250598;22;19918;-81
2022/07/05 12:13:11;;;;;;;;;;;;;;;24.61;37.02;102444.28;6278060;22;19922;-80
2022/07/05 12:15:37;;;;;;;;;;;;;;;24.61;37.06;102447.78;6250588;22;20327;-79
2022/07/05 12:18:03;;;;;;;;;;;;;;;24.59;37.33;102444.31;6250899;22;19907;-80
2022/07/05 12:20:29;;;;;;;;;;;;;;;24.58;37.33;102431.16;6250341;22;19907;-80
2022/07/05 12:22:55;;;;;;;;;;;;;;;24.60;36.70;102432.00;6225591;22;19918;-80
2022/07/05 12:25:21;;;;;;;;;;;;;;;24.63;36.96;102434.63;6250413;22;19911;-80
2022/07/05 12:27:50;;;;;;;;;;;;;;;24.63;37.01;102432.84;6250182;22;20022;-80
2022/07/05 12:30:16;;;;;;;;;;;;;;;24.64;37.01;102433.72;6277441;22;20212;-80
2022/07/05 12:33:00;;;;;;;;;;;;;;;24.63;37.07;102432.84;6250086;22;19938;-80
2022/07/05 12:35:27;;;;;;;;;;;;;;;24.64;37.45;102425.81;6250536;22;19911;-80
2022/07/05 12:37:52;;;;;;;;;;;;;;;24.66;37.36;102416.13;6250321;22;20319;-80
2022/07/05 12:40:21;;;;;;;;;;;;;;;24.66;37.25;102433.69;6277998;22;19907;-80